Date,TemperatureHighF,TemperatureAvgF,TemperatureLowF,DewpointHighF,DewpointAvgF,DewpointLowF,HumidityHigh,HumidityAvg,HumidityLow,PressureMaxIn,PressureMinIn,WindSpeedMaxMPH,WindSpeedAvgMPH,GustSpeedMaxMPH,PrecipitationSumIn
2013-1-1,38.0,34.3,23.5,29.7,23.3,12.0,76,64,51,30.04,29.85,16,3,17,0.01
2013-1-2,30.4,25.3,19.8,18.3,13.7,10.0,73,61,49,30.20,30.01,22,2,22,0.00
2013-1-3,32.0,26.1,17.1,20.1,16.2,12.7,85,66,51,30.21,30.07,11,1,11,0.00
2013-1-4,36.7,33.0,29.6,25.0,22.2,20.1,73,64,54,30.09,29.95,14,3,17,0.00
2013-1-5,40.7,33.5,25.5,26.1,22.5,18.8,89,65,49,30.29,30.02,18,2,19,0.00
2013-1-6,45.2,36.2,27.6,31.1,27.6,24.2,88,72,50,30.24,29.98,12,1,12,0.00
2013-1-7,42.0,33.5,23.6,30.1,25.2,21.0,93,74,43,30.41,30.06,15,1,16,0.00
2013-1-8,47.2,31.4,20.1,31.9,25.5,18.6,95,81,50,30.44,30.34,7,0,7,0.00
2013-1-9,46.2,34.0,22.8,37.8,29.5,21.6,96,85,63,30.41,30.15,14,0,14,0.00
2013-1-10,46.3,39.9,30.4,32.8,26.4,23.8,87,60,42,30.56,30.23,20,2,22,0.00
2013-1-11,39.4,34.3,27.7,38.0,31.2,25.5,98,89,69,30.56,30.12,4,0,4,0.32
2013-1-12,46.1,42.5,38.4,44.5,41.8,37.9,99,97,93,30.19,30.09,5,0,5,0.02
2013-1-13,45.8,44.3,41.9,45.5,44.0,41.4,99,99,98,30.17,30.01,4,0,5,0.03
2013-1-14,54.2,46.8,37.2,51.7,41.2,28.5,100,83,53,30.32,29.90,18,2,18,0.10
2013-1-15,37.1,35.0,33.1,34.2,28.9,25.7,96,79,67,30.37,30.23,9,1,9,0.15
2013-1-16,34.3,31.7,29.8,33.2,30.6,28.8,97,96,85,30.25,29.82,6,1,8,0.00
2013-1-17,41.6,37.2,33.1,33.0,28.2,22.7,96,70,55,30.12,29.92,17,2,17,0.31
2013-1-18,33.1,25.2,20.4,23.8,12.3,3.3,80,59,37,30.49,30.03,14,3,14,0.00
2013-1-19,46.6,36.1,21.5,30.0,24.1,13.0,81,62,48,30.41,29.92,10,1,13,0.00
2013-1-20,50.4,38.3,27.7,31.5,22.9,9.0,95,58,24,30.05,29.69,31,3,32,0.00
2013-1-21,29.2,25.6,19.8,19.1,14.1,7.0,78,62,44,30.10,29.85,11,1,16,0.00
2013-1-22,24.3,17.3,10.9,14.6,1.7,-8.0,78,51,32,30.22,29.85,18,4,22,0.00
2013-1-23,17.2,11.4,5.9,3.0,-2.4,-6.2,86,54,36,30.27,30.18,17,2,20,0.00
2013-1-24,21.4,13.3,4.8,4.6,0.9,-3.0,89,60,36,30.43,30.15,24,4,24,0.00
2013-1-25,22.6,15.9,10.7,15.1,5.7,-1.0,92,65,45,30.43,30.09,11,1,17,0.00
2013-1-26,26.6,17.2,9.1,10.3,7.5,4.8,93,68,41,30.40,30.07,18,2,18,0.00
2013-1-27,32.9,23.0,12.5,16.1,11.0,8.0,85,62,36,30.54,30.40,23,2,23,0.00
2013-1-28,32.2,27.5,19.8,31.5,24.4,13.9,97,88,72,30.51,30.02,6,0,6,0.19
2013-1-29,52.7,38.7,32.1,42.9,36.1,31.0,98,91,66,30.17,30.01,9,0,10,0.35
2013-1-30,49.7,42.3,36.5,49.4,42.0,36.0,99,99,98,30.10,29.35,4,0,4,0.48
2013-1-31,60.5,43.2,27.9,59.6,30.0,9.7,100,62,36,29.78,29.03,30,6,33,1.01
2013-2-1,29.2,25.8,21.3,16.3,12.1,6.0,75,56,37,30.24,29.78,23,4,23,0.00
2013-2-2,27.6,21.7,15.8,19.3,11.3,4.8,90,65,40,30.31,30.07,13,2,13,0.00
2013-2-3,29.4,22.4,17.3,19.8,17.7,15.0,93,83,60,30.07,29.81,10,1,10,0.00
2013-2-4,28.7,24.8,20.3,20.7,11.3,7.0,87,57,41,29.99,29.82,18,3,18,0.00
2013-2-5,28.4,26.4,23.4,26.0,21.6,13.0,92,82,61,30.00,29.92,5,1,5,0.00
2013-2-6,38.1,30.4,22.5,26.6,19.3,3.6,97,67,35,30.37,29.93,15,2,16,0.01
2013-2-7,30.6,24.9,18.7,18.0,10.9,4.1,73,55,39,30.53,30.36,6,1,6,0.00
2013-2-8,31.8,29.7,25.8,30.8,27.1,18.0,98,90,68,30.36,29.68,16,5,16,0.00
2013-2-9,32.2,26.5,18.9,26.9,14.8,3.0,97,65,31,30.37,29.78,23,5,23,0.00
2013-2-10,38.7,24.2,10.7,19.7,11.3,5.0,87,61,27,30.50,30.34,8,1,8,0.04
2013-2-11,40.2,32.8,25.1,39.8,30.9,18.7,99,93,77,30.34,29.68,7,0,7,0.01
2013-2-12,43.4,38.3,30.0,35.1,27.4,23.0,98,66,49,29.99,29.73,19,3,19,0.00
2013-2-13,42.0,30.3,21.5,31.3,25.8,20.0,96,84,51,29.97,29.70,8,0,8,0.01
2013-2-14,45.8,34.5,26.2,31.5,28.1,23.7,98,80,44,30.01,29.73,8,0,10,0.04
2013-2-15,53.6,39.5,26.9,34.2,29.3,25.5,96,71,37,30.02,29.92,15,1,15,0.03
2013-2-16,35.9,33.0,28.4,33.3,26.2,13.0,95,77,52,29.99,29.77,13,3,13,0.05
2013-2-17,28.7,24.2,15.5,14.7,5.4,-0.3,59,45,32,30.02,29.69,28,6,31,0.00
2013-2-18,34.7,23.5,14.9,19.9,6.9,1.0,75,50,30,30.25,30.01,24,4,28,0.00
2013-2-19,41.0,32.2,20.0,39.6,26.9,16.0,98,81,54,30.22,29.70,17,1,17,0.30
2013-2-20,35.9,28.7,23.5,23.8,14.4,9.0,65,55,45,29.99,29.73,22,5,22,0.00
2013-2-21,31.6,25.6,21.8,14.6,12.5,10.0,70,57,47,30.33,29.99,26,6,26,0.00
2013-2-22,37.9,30.1,20.5,27.4,20.7,13.5,85,69,53,30.42,30.28,6,1,11,0.00
2013-2-23,38.6,34.7,31.4,38.1,33.8,27.0,98,96,79,30.29,29.84,9,2,9,0.13
2013-2-24,45.9,36.9,31.9,36.9,30.6,22.0,98,79,57,29.99,29.76,17,3,18,0.02
2013-2-25,42.2,36.1,29.2,30.5,27.1,22.0,85,70,55,30.25,29.99,12,2,12,0.00
2013-2-26,42.5,35.5,26.5,33.1,30.4,25.1,96,82,67,30.31,29.92,8,2,16,0.14
2013-2-27,45.0,40.4,34.5,43.6,38.5,33.0,98,93,79,29.95,29.52,13,3,22,0.97
2013-2-28,47.1,40.2,35.7,38.5,33.8,30.0,98,79,53,29.63,29.56,10,1,11,0.00
2013-3-1,42.1,37.6,31.2,31.4,29.2,25.7,90,72,57,29.80,29.62,12,3,16,0.00
2013-3-2,36.8,33.4,29.4,25.8,24.4,21.5,83,69,60,29.79,29.72,16,4,17,0.00
2013-3-3,37.2,30.2,26.5,21.8,18.8,15.8,73,63,48,29.79,29.68,19,4,19,0.00
2013-3-4,37.4,31.3,25.5,21.0,19.3,15.0,72,61,49,29.93,29.78,23,5,24,0.00
2013-3-5,47.2,36.3,29.6,29.9,24.8,20.9,84,64,44,30.04,29.93,10,3,16,0.00
2013-3-6,40.7,38.4,34.9,36.5,30.7,26.9,90,74,64,30.00,29.89,27,6,27,0.02
2013-3-7,37.6,35.0,32.2,33.5,29.6,26.0,96,81,67,30.11,29.96,22,6,22,0.11
2013-3-8,40.4,34.2,30.0,35.0,31.3,28.7,96,90,75,30.23,30.03,12,2,18,0.49
2013-3-9,54.1,39.1,29.2,30.6,25.4,13.4,91,62,21,30.34,30.21,14,2,14,0.00
2013-3-10,52.2,37.8,25.1,36.3,30.6,23.6,96,77,51,30.41,30.30,8,1,8,0.00
2013-3-11,54.5,44.7,37.1,46.9,40.6,34.0,98,86,60,30.34,30.10,11,1,11,0.01
2013-3-12,53.8,49.2,41.6,53.0,47.0,36.4,98,92,77,30.10,29.67,14,1,14,1.07
2013-3-13,48.7,40.6,31.9,36.5,29.8,20.1,95,68,33,29.90,29.80,16,2,16,0.00
2013-3-14,39.1,32.5,26.5,27.1,12.6,3.8,71,45,23,29.98,29.85,26,6,26,0.00
2013-3-15,44.1,35.7,27.6,30.6,20.0,10.0,66,53,41,29.99,29.72,16,3,17,0.00
2013-3-16,38.8,33.3,29.2,30.0,24.9,18.6,95,73,52,29.93,29.80,9,1,9,0.02
2013-3-17,36.1,30.8,25.8,28.8,18.7,12.0,89,62,39,30.33,29.93,13,2,17,0.01
2013-3-18,34.4,27.8,20.7,29.6,19.1,10.4,97,71,47,30.43,30.05,6,2,9,0.00
2013-3-19,44.9,35.6,30.4,35.6,32.5,26.6,97,89,67,30.05,29.71,17,2,18,0.57
2013-3-20,42.7,35.1,28.9,26.6,20.5,15.4,79,56,35,29.89,29.80,18,2,19,0.00
2013-3-21,37.5,32.3,28.7,27.8,16.7,10.0,89,54,34,29.86,29.64,12,3,13,0.00
2013-3-22,40.2,32.3,26.5,24.4,18.5,13.0,75,57,44,29.90,29.74,17,2,17,0.00
2013-3-23,43.7,37.0,31.6,24.5,20.6,18.0,70,52,38,29.96,29.83,19,4,21,0.00
2013-3-24,45.6,37.1,27.5,27.2,22.2,19.0,78,56,39,29.97,29.72,17,2,17,0.00
2013-3-25,42.0,38.5,35.5,34.3,28.2,24.6,85,67,53,29.72,29.48,14,3,17,0.00
2013-3-26,49.4,40.5,30.5,31.2,28.0,24.6,87,63,38,29.88,29.61,13,2,16,0.00
2013-3-27,50.7,40.5,29.4,34.9,27.0,17.9,90,61,31,30.00,29.88,18,3,18,0.00
2013-3-28,47.8,42.1,36.5,32.9,30.2,28.2,77,63,51,30.12,29.97,11,4,17,0.00
2013-3-29,51.7,44.7,36.0,30.9,29.0,25.0,77,55,36,30.15,30.07,17,3,17,0.00
2013-3-30,57.3,43.1,28.8,31.3,26.4,18.3,95,58,23,30.18,30.07,15,2,17,0.00
2013-3-31,55.7,42.1,28.4,43.3,33.2,25.0,97,73,37,30.14,29.69,14,1,15,0.15
2013-4-1,60.5,45.8,35.4,46.0,35.4,12.0,99,71,34,29.93,29.62,20,3,21,0.01
2013-4-2,42.3,35.5,29.1,17.9,13.0,7.0,59,40,26,30.11,29.92,23,4,23,0.00
2013-4-3,44.1,36.3,30.7,15.8,12.7,9.0,52,38,26,30.32,30.09,21,4,21,0.00
2013-4-4,56.1,41.1,26.5,30.9,20.8,14.9,74,46,26,30.40,30.08,20,2,22,0.00
2013-4-5,60.1,47.2,36.8,29.2,23.1,17.7,70,41,21,30.08,29.74,15,3,19,0.00
2013-4-6,53.4,41.1,33.1,28.2,15.0,3.6,72,38,15,30.31,30.01,19,3,20,0.00
2013-4-7,61.6,47.3,33.5,44.4,34.1,24.0,87,63,30,30.31,29.98,12,1,12,0.00
2013-4-8,76.7,56.9,40.1,46.6,41.5,36.2,96,62,24,30.09,29.98,11,1,12,0.00
2013-4-9,80.0,64.8,49.3,51.9,43.9,34.9,91,53,20,30.00,29.90,20,2,20,0.00
2013-4-10,76.9,62.1,51.4,57.0,51.1,41.8,97,69,48,29.97,29.81,18,1,25,0.57
2013-4-11,62.6,55.7,49.1,57.6,48.3,39.0,98,78,53,30.03,29.79,12,3,12,0.01
2013-4-12,43.6,41.0,39.2,40.9,38.6,34.5,97,91,73,29.97,29.74,17,4,17,0.41
2013-4-13,58.2,51.1,40.9,42.0,35.9,32.3,90,58,41,29.98,29.85,15,2,15,0.03
2013-4-14,54.7,48.5,41.7,40.5,32.3,25.7,86,56,35,30.23,29.97,19,3,19,0.00
2013-4-15,61.9,49.0,37.7,35.6,31.5,27.7,79,53,33,30.38,30.23,9,1,9,0.00
2013-4-16,64.9,55.9,45.7,55.1,47.6,35.4,85,74,64,30.38,30.11,11,1,12,0.00
2013-4-17,65.8,58.6,54.1,56.9,45.8,33.3,90,65,31,30.24,30.12,12,2,12,0.00
2013-4-18,61.0,54.5,43.3,53.2,45.6,35.4,96,75,39,30.35,30.11,11,1,11,0.00
2013-4-19,78.3,64.6,54.1,64.8,59.8,51.7,99,85,60,30.11,29.63,18,1,18,0.00
2013-4-20,57.9,51.4,42.1,52.3,34.4,21.9,94,56,29,30.33,29.69,21,4,21,0.00
2013-4-21,52.7,43.1,34.4,29.2,22.2,16.4,67,45,25,30.63,30.33,14,3,20,0.00
2013-4-22,55.1,44.8,33.5,35.3,30.6,21.5,90,60,29,30.68,30.51,13,2,13,0.00
2013-4-23,50.7,43.5,37.6,41.8,36.6,30.7,89,77,70,30.51,30.13,12,3,12,0.00
2013-4-24,74.5,54.7,36.9,51.9,45.0,35.6,97,73,44,30.13,29.81,11,1,12,0.00
2013-4-25,64.0,53.6,43.5,53.6,31.0,18.8,89,46,18,30.27,29.85,22,3,27,0.00
2013-4-26,64.8,53.5,38.1,36.3,30.4,17.9,90,46,17,30.42,30.27,13,2,13,0.00
2013-4-27,69.5,54.5,36.8,40.3,32.3,24.0,89,48,23,30.44,30.27,10,1,10,0.00
2013-4-28,74.0,56.1,39.3,42.9,36.6,30.0,88,52,26,30.32,30.19,11,1,11,0.00
2013-4-29,54.7,52.6,49.1,50.7,46.8,37.1,96,81,54,30.24,30.19,6,0,6,0.00
2013-4-30,70.3,57.6,45.1,48.6,40.1,25.0,92,58,23,30.34,30.21,7,1,7,0.00
2013-5-1,70.8,54.1,36.2,45.8,36.8,23.9,92,58,22,30.50,30.34,9,1,9,0.00
2013-5-2,77.4,58.5,39.5,47.6,41.2,35.3,97,60,24,30.49,30.32,7,1,7,0.00
2013-5-3,69.0,57.2,45.9,46.5,39.1,30.9,89,53,28,30.47,30.35,8,1,8,0.00
2013-5-4,73.9,54.9,40.1,45.9,42.5,38.9,97,68,33,30.39,30.22,7,1,8,0.00
2013-5-5,68.0,51.7,40.3,44.9,40.8,36.1,96,70,36,30.31,30.21,6,1,6,0.00
2013-5-6,72.6,55.3,39.9,54.7,47.4,38.5,96,77,47,30.28,30.15,8,1,8,0.00
2013-5-7,75.5,61.2,45.0,58.8,52.6,44.0,98,76,49,30.18,30.08,10,0,10,0.00
2013-5-8,64.5,60.1,54.1,62.3,58.6,53.4,98,95,86,30.12,29.98,5,0,5,0.00
2013-5-9,68.0,58.2,51.0,58.9,55.0,50.5,99,90,64,30.02,29.89,7,0,8,0.00
2013-5-10,81.2,65.4,50.9,59.7,55.2,50.0,99,74,39,30.01,29.90,9,1,10,0.00
2013-5-11,72.3,64.5,61.2,65.9,62.5,58.0,98,93,78,29.90,29.71,14,0,16,0.00
2013-5-12,66.7,60.0,48.9,61.7,41.1,25.5,98,53,25,29.94,29.66,20,3,21,0.00
2013-5-13,53.0,46.4,38.1,35.8,30.3,23.7,88,56,33,30.13,29.94,11,2,15,0.02
2013-5-14,59.3,47.4,34.9,36.2,30.6,21.4,93,57,23,30.15,30.03,7,2,12,0.00
2013-5-15,70.3,55.1,37.6,57.1,46.5,34.9,94,74,51,30.08,29.67,7,0,7,0.00
2013-5-16,82.7,66.0,50.3,55.7,50.4,40.4,98,63,24,29.85,29.71,13,1,13,0.00
2013-5-17,73.2,62.5,52.0,50.0,42.7,37.0,84,50,28,30.22,29.85,10,1,10,0.00
2013-5-18,66.4,56.8,45.8,55.4,49.5,43.9,95,78,49,30.31,30.21,4,0,5,0.00
2013-5-19,58.7,56.7,54.7,57.8,55.7,53.5,99,97,90,30.33,30.19,5,0,5,0.52
2013-5-20,81.6,66.9,56.7,68.0,62.3,56.4,99,87,59,30.19,29.96,9,1,9,0.01
2013-5-21,89.3,74.0,59.6,71.6,66.6,59.0,99,80,54,29.98,29.83,8,1,9,0.00
2013-5-22,83.5,70.6,61.2,73.2,66.7,59.6,97,88,67,29.93,29.82,7,0,10,0.00
2013-5-23,75.5,68.9,66.0,72.9,67.8,65.4,99,96,88,29.89,29.75,11,0,11,2.15
2013-5-24,66.8,64.8,62.6,66.5,63.9,61.5,99,97,94,29.76,29.73,10,1,10,0.18
2013-5-25,50.9,47.5,43.9,45.4,42.6,39.0,96,84,65,30.03,29.91,18,3,18,0.37
2013-5-26,64.5,53.6,43.3,42.1,38.5,33.7,89,60,33,30.22,29.97,16,2,18,0.00
2013-5-27,76.0,58.1,39.8,48.8,40.5,33.6,95,59,23,30.26,30.12,10,1,10,0.00
2013-5-28,64.1,55.0,46.6,56.1,51.8,45.0,98,90,60,30.23,30.14,7,0,7,0.47
2013-5-29,84.0,67.9,56.7,70.9,63.6,56.1,99,88,61,30.15,29.99,7,0,8,0.01
2013-5-30,92.5,77.0,63.4,69.7,65.4,61.9,99,72,38,30.13,30.05,9,1,9,0.00
2013-5-31,94.5,77.5,63.6,71.6,66.2,62.0,98,72,38,30.13,29.98,11,0,11,0.00
2013-6-1,91.6,76.3,61.9,75.2,68.0,61.0,99,78,48,30.02,29.89,10,1,10,0.00
2013-6-2,88.9,76.1,67.9,71.2,68.9,67.0,98,80,54,29.91,29.76,13,1,13,0.08
2013-6-3,80.5,71.3,64.7,70.4,64.6,47.1,98,81,53,29.90,29.80,10,1,11,0.20
2013-6-4,73.8,63.3,54.6,49.7,45.0,39.0,72,53,31,30.12,29.90,11,2,12,0.00
2013-6-5,77.8,63.1,47.1,51.2,46.2,38.7,89,57,33,30.22,30.11,6,1,7,0.00
2013-6-6,70.9,60.6,50.8,60.0,54.6,48.5,97,83,46,30.16,30.02,7,0,7,0.19
2013-6-7,61.2,59.7,58.2,60.6,59.2,57.8,99,98,97,30.02,29.66,4,0,4,3.10
2013-6-8,75.1,65.3,56.1,64.4,60.1,55.0,99,84,64,30.07,29.62,7,1,13,0.06
2013-6-9,80.7,67.9,56.3,65.4,58.9,55.8,99,76,45,30.18,30.07,9,1,9,0.00
2013-6-10,69.0,63.4,60.0,66.1,61.4,57.4,99,93,87,30.17,29.84,7,0,8,0.81
2013-6-11,77.9,69.0,60.9,68.6,63.7,59.0,100,84,64,29.84,29.62,17,2,18,0.18
2013-6-12,73.9,67.1,57.1,60.5,55.6,52.0,93,68,49,29.86,29.71,14,2,16,0.00
2013-6-13,61.2,58.2,54.8,60.6,57.2,53.4,98,96,93,29.86,29.50,7,0,7,1.28
2013-6-14,73.8,60.8,52.2,59.9,54.4,50.8,97,81,57,29.90,29.57,11,2,12,0.42
2013-6-15,78.7,68.2,57.6,59.6,55.0,48.2,92,66,38,30.02,29.90,8,1,10,0.00
2013-6-16,80.5,67.2,53.4,65.2,58.8,52.6,98,77,48,30.00,29.77,14,1,15,0.00
2013-6-17,86.5,72.9,60.1,68.1,63.0,59.0,99,74,45,29.92,29.83,13,1,14,0.00
2013-6-18,84.3,67.9,60.1,70.9,63.1,59.0,98,86,54,29.91,29.82,5,0,5,1.56
2013-6-19,76.3,64.4,54.9,60.0,53.8,45.3,98,72,38,30.18,29.90,8,1,8,0.02
2013-6-20,82.2,66.3,51.2,61.9,56.1,50.4,98,74,40,30.27,30.17,6,0,8,0.00
2013-6-21,84.5,70.0,55.6,63.1,58.8,54.4,97,71,45,30.30,30.22,10,1,10,0.00
2013-6-22,86.2,71.1,56.7,66.8,61.2,55.0,97,73,48,30.26,30.12,9,1,11,0.00
2013-6-23,89.3,75.8,61.0,71.4,66.6,59.7,97,75,51,30.19,30.05,10,1,10,0.00
2013-6-24,92.0,80.2,71.4,72.6,69.7,65.1,96,73,43,30.07,29.93,11,1,12,0.00
2013-6-25,90.3,78.8,66.2,74.3,68.5,64.6,96,73,47,30.00,29.79,14,1,15,0.00
2013-6-26,84.0,77.5,70.7,72.9,68.7,65.9,91,75,62,29.85,29.78,9,1,9,0.00
2013-6-27,88.1,75.8,66.4,74.0,69.7,65.0,97,83,58,29.83,29.51,8,0,10,1.46
2013-6-28,86.0,76.9,71.3,72.2,69.8,66.1,97,80,55,29.55,29.46,10,1,12,0.11
2013-6-29,86.8,75.2,67.2,69.7,66.9,61.1,96,78,46,29.70,29.49,12,1,13,0.00
2013-6-30,87.2,74.8,64.8,75.8,70.3,63.8,97,87,65,29.92,29.70,5,0,5,0.01
2013-7-1,75.7,73.8,70.1,74.3,72.3,68.9,98,95,91,30.05,29.90,5,0,5,1.06
2013-7-2,84.1,75.9,72.6,77.3,73.7,71.7,98,93,74,30.18,30.04,7,0,7,0.44
2013-7-3,86.4,76.6,70.5,77.4,72.9,69.6,98,89,70,30.25,30.17,8,0,10,0.00
2013-7-4,88.7,79.7,72.7,76.2,73.5,72.0,99,83,59,30.25,30.14,11,1,12,0.00
2013-7-5,92.3,80.9,71.0,76.5,72.4,70.1,98,77,52,30.21,30.08,8,1,10,0.00
2013-7-6,91.0,81.7,73.3,77.2,73.5,71.0,96,78,55,30.14,30.02,11,1,11,0.00
2013-7-7,94.0,82.0,72.3,77.7,74.2,70.7,98,79,52,30.07,29.92,10,1,10,0.13
2013-7-8,88.3,77.8,68.5,71.9,69.3,66.2,98,77,53,30.05,29.96,10,1,11,0.00
2013-7-9,88.2,78.2,68.4,74.4,69.8,66.4,97,77,51,30.07,29.99,11,1,11,0.00
2013-7-10,85.5,78.6,72.0,76.4,72.3,69.6,94,82,64,30.02,29.80,13,1,13,0.00
2013-7-11,84.3,76.2,67.9,74.3,70.4,65.1,97,83,59,29.94,29.80,5,0,5,0.05
2013-7-12,77.3,71.9,66.2,70.8,66.4,62.3,97,83,70,30.12,29.94,5,0,5,0.22
2013-7-13,78.8,71.1,65.2,76.0,69.8,64.5,99,96,88,30.29,30.12,2,0,2,0.13
2013-7-14,90.6,80.2,72.1,76.3,73.4,71.5,99,81,57,30.35,30.23,10,1,10,0.00
2013-7-15,92.7,81.3,72.2,77.1,73.3,71.0,97,79,53,30.25,30.14,7,0,8,0.00
2013-7-16,92.3,80.3,69.7,76.1,70.3,66.1,98,74,45,30.21,30.13,7,0,7,0.00
2013-7-17,94.9,81.3,69.8,78.2,71.5,65.8,97,75,41,30.20,30.06,5,0,6,0.00
2013-7-18,95.5,83.8,74.1,78.7,74.2,70.2,95,75,46,30.07,29.95,8,1,8,0.00
2013-7-19,96.0,85.7,74.9,77.6,75.2,73.2,97,73,50,29.97,29.78,16,1,16,0.00
2013-7-20,91.5,81.8,74.3,76.2,72.9,69.9,91,76,53,29.84,29.72,15,2,16,0.02
2013-7-21,88.0,78.4,71.0,71.7,67.3,62.1,93,71,46,29.96,29.84,2,0,4,0.00
2013-7-22,86.5,74.2,67.2,75.0,70.5,64.6,98,89,64,29.97,29.80,5,0,6,1.15
2013-7-23,87.0,76.8,71.4,75.6,72.8,70.0,99,88,59,29.80,29.56,10,1,10,1.14
2013-7-24,79.3,72.7,65.4,70.4,64.2,55.0,98,76,55,29.95,29.62,11,1,11,0.00
2013-7-25,67.4,64.1,61.2,61.0,55.8,49.6,91,75,65,30.07,29.95,5,0,5,0.00
2013-7-26,84.3,71.2,63.7,64.8,61.5,59.5,93,73,45,30.05,29.99,7,1,7,0.00
2013-7-27,86.2,71.2,58.4,66.6,62.2,57.6,98,76,45,30.06,29.95,9,1,9,0.00
2013-7-28,78.6,70.3,64.4,71.0,66.9,62.9,98,90,72,29.99,29.92,4,0,4,0.49
2013-7-29,83.0,72.1,61.5,69.1,64.0,52.1,99,79,39,30.12,29.96,9,1,9,0.00
2013-7-30,78.7,67.9,57.8,65.1,58.9,55.4,95,75,48,30.18,30.11,8,1,8,0.00
2013-7-31,82.0,69.1,57.2,68.4,61.7,56.0,98,79,52,30.17,30.04,6,0,6,0.00
2013-8-1,70.9,66.2,63.3,67.9,64.9,61.8,99,96,87,30.05,29.84,4,0,4,0.52
2013-8-2,82.9,71.8,61.9,67.8,64.2,58.8,99,79,47,29.92,29.80,12,1,12,0.00
2013-8-3,78.1,67.7,62.7,68.9,64.6,60.3,98,90,66,29.92,29.84,10,0,10,0.21
2013-8-4,77.2,68.2,58.3,63.7,57.6,52.2,98,71,45,29.99,29.87,12,2,12,0.01
2013-8-5,76.7,65.0,54.2,59.5,52.6,43.8,94,67,39,30.07,29.98,9,1,9,0.00
2013-8-6,83.4,66.9,52.3,60.0,56.5,51.5,98,73,40,30.13,30.05,7,0,8,0.00
2013-8-7,78.5,68.6,62.4,68.8,64.7,59.4,98,88,67,30.15,30.06,4,0,4,0.16
2013-8-8,83.8,72.2,68.7,74.7,70.5,68.0,99,95,73,30.07,30.00,7,0,7,0.31
2013-8-9,85.0,75.1,70.5,76.1,72.8,69.9,99,93,71,30.02,29.80,12,1,13,0.35
2013-8-10,82.3,72.7,61.9,70.5,63.9,57.4,98,76,45,30.06,29.87,11,1,12,0.00
2013-8-11,77.5,68.0,56.1,65.9,58.7,52.7,96,74,48,30.14,30.03,4,0,8,0.00
2013-8-12,84.7,71.7,64.8,67.1,63.8,58.3,97,79,43,30.05,29.93,5,0,5,0.00
2013-8-13,79.2,69.1,64.1,70.7,66.6,62.8,99,92,70,29.95,29.70,7,0,16,1.49
2013-8-14,72.0,64.1,57.4,64.4,53.0,47.0,97,68,53,30.06,29.77,16,2,16,0.00
2013-8-15,75.4,62.9,50.5,59.3,52.9,48.8,98,73,41,30.16,30.06,9,1,9,0.00
2013-8-16,80.5,64.8,52.1,62.5,55.6,51.0,98,76,40,30.22,30.14,7,0,7,0.00
2013-8-17,83.5,66.7,53.6,65.2,58.7,52.8,98,79,43,30.29,30.22,3,0,3,0.00
2013-8-18,75.3,66.5,59.1,68.0,62.4,58.0,97,87,64,30.28,30.14,2,0,2,0.01
2013-8-19,78.8,68.2,59.6,66.7,62.6,58.6,99,84,59,30.15,30.04,6,1,6,0.00
2013-8-20,86.0,72.9,60.9,70.9,65.0,60.0,98,79,48,30.14,30.06,6,0,6,0.00
2013-8-21,88.5,73.1,61.3,68.5,64.0,58.1,98,77,40,30.19,30.06,8,0,8,0.00
2013-8-22,76.1,70.2,65.6,72.9,68.8,64.3,98,95,87,30.08,29.88,5,0,5,0.30
2013-8-23,80.3,71.7,60.7,67.5,62.5,54.9,92,75,47,30.12,29.89,7,1,7,0.00
2013-8-24,79.2,65.6,54.0,59.4,54.7,50.4,97,72,38,30.37,30.12,4,0,4,0.00
2013-8-25,83.2,66.5,52.6,60.9,55.7,50.2,99,73,35,30.41,30.24,9,1,9,0.00
2013-8-26,77.8,70.4,62.6,70.1,63.9,58.0,97,80,67,30.24,29.91,8,1,8,0.11
2013-8-27,85.7,74.7,69.0,73.3,69.2,67.0,98,85,59,29.92,29.82,9,1,9,0.00
2013-8-28,85.1,71.4,64.7,73.0,69.1,64.1,99,93,64,29.91,29.85,3,0,4,0.34
2013-8-29,80.2,71.0,66.1,70.6,68.4,65.8,99,92,71,30.04,29.90,3,0,4,0.01
2013-8-30,85.0,74.2,67.3,71.6,68.3,66.0,96,83,58,30.04,29.86,10,1,10,0.00
2013-8-31,86.2,76.4,70.0,75.4,72.2,68.8,97,87,68,29.87,29.79,5,0,7,0.00
2013-9-1,82.5,75.5,71.7,76.9,73.4,70.8,98,93,80,29.87,29.80,4,0,4,0.65
2013-9-2,82.0,74.3,70.2,75.1,72.4,69.5,99,94,73,29.81,29.72,6,0,6,0.01
2013-9-3,78.8,70.1,61.4,70.5,63.1,56.8,99,81,51,29.90,29.72,10,1,10,0.18
2013-9-4,81.0,67.5,56.3,63.4,58.3,54.0,99,76,42,30.01,29.90,11,1,11,0.00
2013-9-5,73.7,64.6,52.6,62.0,54.3,41.1,97,73,34,30.18,29.93,10,1,10,0.00
2013-9-6,71.3,57.9,48.3,51.0,45.7,41.1,94,67,38,30.28,30.15,7,1,7,0.00
2013-9-7,79.3,61.9,45.9,59.4,50.8,45.0,98,72,33,30.15,29.91,9,0,9,0.00
2013-9-8,78.7,67.7,57.3,64.9,56.1,41.7,92,69,33,30.10,29.83,11,1,14,0.00
2013-9-9,72.6,60.2,46.9,59.1,50.9,45.0,94,73,47,30.26,30.10,9,0,9,0.00
2013-9-10,86.7,72.8,62.2,74.9,68.2,58.9,97,86,67,30.17,30.05,9,0,9,0.03
2013-9-11,95.6,80.8,69.1,78.3,73.6,68.5,99,80,56,30.12,29.97,6,0,8,0.00
2013-9-12,84.7,73.1,67.5,76.1,70.4,66.8,98,92,72,30.00,29.68,14,0,15,1.34
2013-9-13,74.4,66.0,56.1,66.9,59.4,48.7,98,80,57,29.87,29.64,7,1,13,0.03
2013-9-14,63.2,56.8,51.6,49.6,47.1,44.4,79,70,57,30.14,29.87,11,2,12,0.00
2013-9-15,73.0,56.4,42.8,53.3,47.4,41.8,98,75,37,30.23,30.10,9,1,9,0.00
2013-9-16,71.0,60.1,53.1,57.2,53.6,47.6,97,81,51,30.27,30.05,8,1,8,0.02
2013-9-17,65.3,53.1,42.8,48.2,42.1,36.5,94,68,40,30.45,30.27,6,1,6,0.00
2013-9-18,74.1,54.7,40.5,50.6,45.6,39.7,99,76,36,30.38,30.20,7,0,8,0.00
2013-9-19,78.8,58.4,43.2,56.1,49.5,42.0,99,77,35,30.21,30.07,7,0,8,0.00
2013-9-20,81.8,61.9,46.9,61.4,54.5,46.1,99,80,43,30.11,29.99,4,0,6,0.00
2013-9-21,76.5,63.3,50.3,67.0,59.8,49.0,99,89,68,30.03,29.67,14,0,14,0.89
2013-9-22,64.5,59.8,52.6,61.1,51.2,41.5,98,75,51,29.93,29.66,11,2,14,0.28
2013-9-23,63.9,54.0,46.0,48.8,43.4,40.9,92,69,48,30.07,29.93,10,2,11,0.00
2013-9-24,72.1,54.8,39.1,50.1,44.0,38.3,98,71,36,30.08,29.89,9,1,9,0.00
2013-9-25,72.0,56.2,42.6,56.8,47.7,41.5,98,76,42,29.98,29.89,7,0,7,0.00
2013-9-26,70.7,56.8,46.3,58.5,52.4,45.5,99,87,59,30.13,29.96,3,0,3,0.00
2013-9-27,67.2,56.6,46.0,56.1,51.7,45.0,98,85,62,30.29,30.13,3,0,3,0.00
2013-9-28,73.7,59.5,48.0,56.8,52.6,47.0,98,80,48,30.34,30.25,4,0,4,0.00
2013-9-29,72.8,57.4,46.0,58.4,52.2,45.0,99,85,53,30.26,30.08,3,0,3,0.00
2013-9-30,75.0,57.0,44.9,58.0,50.8,44.0,99,83,45,30.11,29.98,4,0,4,0.00
2013-10-1,80.0,61.7,47.6,63.7,54.9,46.9,99,82,45,30.02,29.91,7,0,8,0.01
2013-10-2,82.8,65.5,51.7,65.0,58.6,51.0,99,81,49,30.03,29.92,11,1,11,0.00
2013-10-3,78.7,63.6,51.3,61.8,57.2,50.8,99,82,47,30.14,30.03,6,0,6,0.00
2013-10-4,83.4,67.0,57.0,71.2,63.4,56.0,98,90,53,30.08,29.97,7,0,7,0.06
2013-10-5,79.6,68.6,64.0,67.6,65.1,63.0,98,89,65,30.11,30.03,4,0,4,0.00
2013-10-6,66.0,64.9,64.0,65.5,64.1,63.0,99,97,93,30.11,30.03,4,0,4,0.09
2013-10-7,76.0,66.0,56.7,71.4,64.0,48.0,99,94,69,30.04,29.72,17,1,19,0.70
2013-10-8,64.8,54.2,46.0,51.8,47.5,43.6,99,81,47,30.36,29.99,9,1,9,0.01
2013-10-9,60.5,52.4,45.3,49.2,46.2,41.7,96,80,56,30.43,30.32,7,1,7,0.00
2013-10-10,61.1,55.8,50.9,54.7,50.5,45.9,89,83,77,30.32,30.10,9,1,9,0.00
2013-10-11,65.8,62.4,58.8,60.8,57.1,52.4,88,83,79,30.11,30.04,8,1,8,0.00
2013-10-12,73.4,63.2,57.1,57.9,50.3,39.2,88,65,30,30.31,30.10,6,1,9,0.00
2013-10-13,66.3,56.7,48.7,53.4,50.4,47.3,96,80,60,30.41,30.30,6,1,8,0.00
2013-10-14,71.1,55.6,47.8,52.2,49.6,46.7,98,82,47,30.39,30.25,4,0,4,0.00
2013-10-15,73.6,56.5,44.9,57.4,50.7,44.1,99,83,52,30.28,30.13,3,0,4,0.00
2013-10-16,66.5,57.2,48.4,59.0,54.1,47.5,98,90,75,30.15,29.93,4,0,4,0.00
2013-10-17,75.5,65.0,59.7,62.7,60.5,58.4,98,87,58,29.93,29.68,6,0,6,0.02
2013-10-18,66.6,59.1,45.6,62.6,48.1,42.0,96,69,43,30.00,29.67,11,3,17,0.00
2013-10-19,62.9,51.5,39.7,52.1,45.2,38.9,98,81,49,30.00,29.77,5,0,6,0.06
2013-10-20,62.0,51.3,40.5,51.8,41.3,34.0,98,73,37,30.08,29.77,13,1,13,0.00
2013-10-21,67.6,49.8,35.9,44.2,39.6,35.1,98,73,32,30.17,30.00,6,0,8,0.00
2013-10-22,61.8,50.5,39.5,51.6,44.5,37.0,99,81,61,30.00,29.75,6,1,6,0.00
2013-10-23,55.4,44.2,35.0,39.9,36.4,33.3,96,76,48,29.83,29.63,10,1,10,0.00
2013-10-24,51.6,43.9,36.5,36.3,31.3,26.0,90,63,40,30.02,29.78,18,2,21,0.00
2013-10-25,51.7,40.7,31.2,34.3,31.1,28.0,94,71,41,30.25,30.02,16,2,16,0.00
2013-10-26,54.5,41.3,28.0,36.8,31.1,27.0,98,71,38,30.24,29.90,15,1,15,0.00
2013-10-27,55.9,47.2,35.5,35.8,33.1,29.7,91,60,39,30.14,29.86,13,1,14,0.00
2013-10-28,61.4,44.6,29.4,37.0,33.4,28.0,98,70,36,30.34,30.14,16,1,16,0.00
2013-10-29,51.8,43.1,35.6,37.0,33.6,30.0,89,71,46,30.45,30.34,7,1,7,0.00
2013-10-30,55.7,44.5,34.7,49.2,40.0,31.9,96,85,67,30.37,30.20,3,0,3,0.00
2013-10-31,60.4,50.3,39.1,58.5,49.3,38.1,99,97,92,30.26,29.80,7,0,7,0.05
2013-11-1,69.8,62.8,48.7,63.8,58.4,48.0,96,86,52,29.80,29.55,25,2,26,0.18
2013-11-2,67.0,54.4,43.7,50.2,44.5,39.4,98,72,47,29.80,29.63,12,1,12,0.00
2013-11-3,49.3,42.0,31.9,43.7,32.6,21.0,96,70,50,30.48,29.80,16,3,16,0.00
2013-11-4,46.1,35.3,28.0,25.4,19.9,15.0,81,55,30,30.68,30.48,9,2,12,0.00
2013-11-5,53.9,41.7,29.1,41.3,34.6,24.9,90,77,58,30.69,30.50,5,0,5,0.00
2013-11-6,59.4,49.5,38.1,50.4,43.9,36.4,96,82,61,30.52,30.08,6,0,6,0.00
2013-11-7,60.2,51.2,36.1,57.1,46.7,31.9,96,85,61,30.08,29.75,18,1,19,0.08
2013-11-8,47.2,40.5,33.6,34.5,28.8,24.5,90,65,43,30.24,29.94,21,2,21,0.00
2013-11-9,49.1,39.7,28.6,32.2,28.1,24.4,94,66,40,30.31,30.01,11,0,12,0.00
2013-11-10,57.3,45.8,34.7,40.2,33.9,30.0,90,65,40,30.06,29.82,18,3,25,0.01
2013-11-11,50.9,46.5,39.2,34.1,29.9,25.0,62,52,45,30.22,29.97,14,2,17,0.00
2013-11-12,49.8,36.0,28.7,35.7,24.4,16.0,90,63,48,30.31,29.94,19,3,20,0.02
2013-11-13,37.1,29.9,25.1,20.1,16.3,10.8,73,58,36,30.40,30.28,19,2,19,0.00
2013-11-14,51.0,35.9,23.6,25.1,20.0,17.0,85,57,26,30.28,30.17,9,1,13,0.00
2013-11-15,57.2,37.4,24.6,29.8,24.2,20.0,87,64,26,30.27,30.16,6,0,6,0.00
2013-11-16,60.9,45.5,31.3,44.5,38.8,28.0,96,79,49,30.34,30.24,6,0,6,0.01
2013-11-17,58.4,50.7,41.4,57.4,50.0,40.3,99,97,95,30.29,29.79,5,0,5,0.02
2013-11-18,62.9,57.4,48.2,60.5,41.0,27.0,98,59,31,29.80,29.59,19,3,19,0.29
2013-11-19,48.1,41.2,33.8,30.5,25.4,21.8,62,53,45,30.37,29.80,22,5,22,0.00
2013-11-20,42.4,33.0,24.0,22.1,17.6,8.6,78,55,25,30.64,30.36,16,3,16,0.00
2013-11-21,49.4,36.6,19.5,39.9,28.7,17.0,92,74,54,30.65,30.41,6,0,6,0.00
2013-11-22,57.3,49.0,42.9,49.7,44.7,38.0,96,86,72,30.41,29.92,13,1,13,0.04
2013-11-23,53.1,39.2,27.0,47.0,24.2,6.0,91,56,35,30.06,29.90,25,6,27,0.00
2013-11-24,26.9,23.2,20.4,9.4,5.8,-0.7,57,47,31,30.40,30.03,25,6,27,0.00
2013-11-25,34.1,26.6,16.8,15.2,12.0,7.7,74,54,43,30.50,30.34,12,1,13,0.00
2013-11-26,38.4,33.0,30.2,37.6,23.9,14.0,98,71,51,30.35,29.80,9,1,9,0.56
2013-11-27,56.9,42.6,31.8,56.6,39.1,19.0,99,88,59,29.80,29.35,19,5,26,2.45
2013-11-28,32.0,28.4,22.9,20.8,15.0,8.7,78,58,38,30.49,29.76,23,4,26,0.00
2013-11-29,34.6,28.7,22.3,23.1,19.2,14.0,89,68,54,30.76,30.48,11,1,11,0.00
2013-11-30,33.7,26.7,16.8,25.4,17.3,12.0,86,68,52,30.79,30.40,4,1,7,0.00
2013-12-1,46.3,36.3,26.6,33.8,29.8,24.4,93,78,59,30.40,30.03,4,0,4,0.00
2013-12-2,45.4,36.0,28.7,37.3,31.8,27.4,96,85,63,30.03,29.90,3,0,3,0.00
2013-12-3,52.6,36.2,26.5,38.4,31.5,25.8,98,85,55,30.03,29.88,7,0,7,0.00
2013-12-4,50.3,39.9,28.3,39.9,34.9,27.0,97,83,65,30.16,30.03,5,0,5,0.00
2013-12-5,50.7,47.8,43.7,50.3,46.8,39.7,99,97,81,30.14,29.94,5,0,5,0.08
2013-12-6,52.4,44.1,36.3,52.1,42.6,34.8,99,95,90,30.18,29.88,12,1,15,0.88
2013-12-7,37.1,34.0,28.6,35.0,25.9,16.0,96,73,53,30.54,30.11,14,2,14,0.04
2013-12-8,30.5,27.7,24.9,26.5,19.1,15.0,95,70,59,30.61,30.41,10,1,10,0.00
2013-12-9,35.5,31.9,27.7,35.0,31.0,26.5,98,97,95,30.42,29.99,9,1,9,0.02
2013-12-10,33.6,30.0,21.1,31.8,27.9,18.4,98,92,81,30.13,29.88,4,0,5,0.00
2013-12-11,31.9,24.7,17.9,20.1,17.4,15.7,93,75,53,30.33,30.13,13,1,16,0.00
2013-12-12,25.4,22.7,20.2,16.7,14.1,7.0,77,69,56,30.32,30.24,9,1,9,0.00
2013-12-13,33.1,27.4,14.0,20.4,14.7,-99.9,85,62,49,30.36,30.14,19,-8,19,0.00
2013-12-14,25.4,20.5,15.8,21.3,17.4,13.9,95,88,75,30.52,29.85,12,4,12,0.00
2013-12-15,36.4,30.9,22.6,31.2,26.7,21.3,97,85,67,29.85,29.56,18,3,19,0.07
2013-12-16,30.0,23.5,12.1,22.2,11.6,7.0,89,62,43,30.26,29.84,19,2,19,0.00
2013-12-17,23.9,18.0,10.4,22.4,15.5,8.0,94,90,82,30.25,29.98,8,1,8,0.00
2013-12-18,35.7,25.5,14.4,23.1,18.8,12.8,95,77,53,30.19,29.96,15,2,16,0.00
2013-12-19,45.4,30.4,15.8,28.6,22.8,14.0,94,75,48,30.20,30.03,9,1,9,0.20
2013-12-20,50.0,37.4,28.9,33.5,30.6,27.0,94,78,52,30.13,29.98,4,0,5,0.05
2013-12-21,56.9,43.5,33.1,48.5,39.4,31.3,98,86,67,30.01,29.91,6,0,6,0.00
2013-12-22,65.8,56.7,44.9,61.8,54.2,43.2,99,92,80,29.97,29.81,12,0,12,0.07
2013-12-23,56.5,48.7,38.0,56.2,46.9,29.8,99,94,71,30.17,29.92,17,1,18,0.77
2013-12-24,38.0,32.2,22.3,30.3,21.7,8.9,94,65,50,30.37,30.11,18,3,19,0.00
2013-12-25,26.4,21.0,15.3,16.2,9.4,5.7,79,61,47,30.55,30.37,17,2,18,0.00
2013-12-26,34.2,27.2,19.7,27.2,21.8,15.7,87,80,71,30.45,30.18,9,1,10,0.00
2013-12-27,37.0,30.3,20.6,25.4,22.3,18.6,94,73,52,30.37,30.27,13,1,15,0.00
2013-12-28,50.8,34.2,21.2,28.7,24.9,19.8,96,72,40,30.30,30.08,13,1,15,0.00
2013-12-29,41.7,35.1,28.4,40.0,32.9,26.0,98,92,79,30.09,29.48,15,2,15,1.12
2013-12-30,40.6,31.9,19.1,36.3,24.3,9.0,97,74,54,30.22,29.70,16,2,18,0.00
2013-12-31,29.4,23.1,16.1,23.9,12.7,7.6,84,64,52,30.30,30.07,14,1,14,0.00
2014-1-1,30.9,24.1,14.3,21.3,15.2,7.0,89,69,54,30.43,30.27,11,1,11,0.00
2014-1-2,28.0,21.0,10.3,21.6,17.0,7.4,92,85,76,30.27,29.73,16,5,16,0.00